sensor_id;sensor_type;location;lat;lon;timestamp;pressure;altitude;pressure_sealevel;temperature;humidity
48718;BME280;34521;33.042;-96.586;2023-03-23T00:00:03;99464.74;;;21.75;39.74
48718;BME280;34521;33.042;-96.586;2023-03-23T00:02:30;99460.90;;;21.69;39.92
48718;BME280;34521;33.042;-96.586;2023-03-23T00:04:49;99463.65;;;24.09;35.11
48718;BME280;34521;33.042;-96.586;2023-03-23T00:07:20;99462.47;;;24.90;33.46
48718;BME280;34521;33.042;-96.586;2023-03-23T00:09:39;99459.38;;;24.70;33.28
48718;BME280;34521;33.042;-96.586;2023-03-23T00:12:04;99465.96;;;24.73;33.56
48718;BME280;34521;33.042;-96.586;2023-03-23T00:14:29;99466.00;;;24.44;33.68
48718;BME280;34521;33.042;-96.586;2023-03-23T00:16:59;99470.83;;;23.28;35.87
48718;BME280;34521;33.042;-96.586;2023-03-23T00:19:19;99474.04;;;22.05;37.03
48718;BME280;34521;33.042;-96.586;2023-03-23T00:21:45;99474.49;;;21.76;36.61
48718;BME280;34521;33.042;-96.586;2023-03-23T00:24:16;99473.50;;;22.24;35.06
48718;BME280;34521;33.042;-96.586;2023-03-23T00:26:35;99475.96;;;22.14;34.49
48718;BME280;34521;33.042;-96.586;2023-03-23T00:29:00;99470.21;;;21.20;34.93
48718;BME280;34521;33.042;-96.586;2023-03-23T00:31:24;99473.94;;;21.52;34.28
48718;BME280;34521;33.042;-96.586;2023-03-23T00:33:49;99477.84;;;22.12;34.39
48718;BME280;34521;33.042;-96.586;2023-03-23T00:36:19;99479.52;;;22.43;33.28
48718;BME280;34521;33.042;-96.586;2023-03-23T00:38:40;99484.05;;;22.93;32.62
48718;BME280;34521;33.042;-96.586;2023-03-23T00:41:05;99487.30;;;23.02;32.53
48718;BME280;34521;33.042;-96.586;2023-03-23T00:43:31;99486.35;;;22.87;32.50
48718;BME280;34521;33.042;-96.586;2023-03-23T00:45:55;99482.57;;;22.33;34.16
48718;BME280;34521;33.042;-96.586;2023-03-23T00:48:25;99488.24;;;21.27;35.11
48718;BME280;34521;33.042;-96.586;2023-03-23T00:50:46;99485.26;;;21.79;34.15
48718;BME280;34521;33.042;-96.586;2023-03-23T00:53:10;99488.28;;;21.14;35.13
48718;BME280;34521;33.042;-96.586;2023-03-23T00:55:35;99478.60;;;22.44;33.10
48718;BME280;34521;33.042;-96.586;2023-03-23T00:58:00;99472.82;;;22.55;32.97
48718;BME280;34521;33.042;-96.586;2023-03-23T01:00:25;99473.03;;;22.58;32.79
48718;BME280;34521;33.042;-96.586;2023-03-23T01:02:51;99471.45;;;23.21;31.98
48718;BME280;34521;33.042;-96.586;2023-03-23T01:05:15;99473.11;;;23.22;32.04
48718;BME280;34521;33.042;-96.586;2023-03-23T01:07:45;99465.27;;;21.84;34.28
48718;BME280;34521;33.042;-96.586;2023-03-23T01:10:06;99462.98;;;21.49;34.45
48718;BME280;34521;33.042;-96.586;2023-03-23T01:12:31;99463.41;;;21.98;33.10
48718;BME280;34521;33.042;-96.586;2023-03-23T01:14:56;99463.92;;;21.44;34.89
48718;BME280;34521;33.042;-96.586;2023-03-23T01:17:22;99462.88;;;22.13;33.14
48718;BME280;34521;33.042;-96.586;2023-03-23T01:19:46;99464.06;;;22.39;33.04
48718;BME280;34521;33.042;-96.586;2023-03-23T01:22:13;99464.47;;;22.48;32.89
48718;BME280;34521;33.042;-96.586;2023-03-23T01:24:36;99464.59;;;23.18;32.05
48718;BME280;34521;33.042;-96.586;2023-03-23T01:27:01;99467.16;;;23.10;31.91
48718;BME280;34521;33.042;-96.586;2023-03-23T01:29:27;99467.25;;;23.12;31.63
48718;BME280;34521;33.042;-96.586;2023-03-23T01:31:51;99470.13;;;23.11;31.72
48718;BME280;34521;33.042;-96.586;2023-03-23T01:34:16;99474.40;;;21.34;34.82
48718;BME280;34521;33.042;-96.586;2023-03-23T01:36:43;99477.78;;;20.78;34.65
48718;BME280;34521;33.042;-96.586;2023-03-23T01:39:07;99479.19;;;21.09;35.59
48718;BME280;34521;33.042;-96.586;2023-03-23T01:41:33;99471.04;;;22.26;33.18
48718;BME280;34521;33.042;-96.586;2023-03-23T01:44:04;99477.31;;;22.24;32.87
48718;BME280;34521;33.042;-96.586;2023-03-23T01:46:27;99482.64;;;22.20;32.82
48718;BME280;34521;33.042;-96.586;2023-03-23T01:48:46;99486.27;;;22.70;32.24
48718;BME280;34521;33.042;-96.586;2023-03-23T01:51:13;99481.05;;;22.74;32.22
48718;BME280;34521;33.042;-96.586;2023-03-23T01:53:44;99484.16;;;22.91;31.83
48718;BME280;34521;33.042;-96.586;2023-03-23T01:56:02;99496.27;;;23.22;31.72
48718;BME280;34521;33.042;-96.586;2023-03-23T01:58:33;99498.20;;;23.33;31.58
48718;BME280;34521;33.042;-96.586;2023-03-23T02:01:03;99496.02;;;23.06;31.70
48718;BME280;34521;33.042;-96.586;2023-03-23T02:03:17;99492.35;;;22.10;33.56
48718;BME280;34521;33.042;-96.586;2023-03-23T02:05:47;99498.13;;;20.82;35.04
48718;BME280;34521;33.042;-96.586;2023-03-23T02:08:13;99497.58;;;21.52;33.41
48718;BME280;34521;33.042;-96.586;2023-03-23T02:10:33;99502.25;;;21.61;33.97
48718;BME280;34521;33.042;-96.586;2023-03-23T02:12:58;99499.01;;;22.22;32.83
48718;BME280;34521;33.042;-96.586;2023-03-23T02:15:24;99503.14;;;22.69;32.62
48718;BME280;34521;33.042;-96.586;2023-03-23T02:17:52;99500.48;;;22.28;32.55
48718;BME280;34521;33.042;-96.586;2023-03-23T02:20:26;99502.40;;;22.63;32.13
48718;BME280;34521;33.042;-96.586;2023-03-23T02:22:47;99503.94;;;22.97;31.83
48718;BME280;34521;33.042;-96.586;2023-03-23T02:30:03;99508.24;;;23.01;31.85
48718;BME280;34521;33.042;-96.586;2023-03-23T02:32:29;99507.83;;;23.34;31.49
48718;BME280;34521;33.042;-96.586;2023-03-23T02:34:44;99508.50;;;22.58;31.89
48718;BME280;34521;33.042;-96.586;2023-03-23T02:37:11;99508.08;;;23.19;31.79
48718;BME280;34521;33.042;-96.586;2023-03-23T02:39:41;99515.77;;;23.14;31.82
48718;BME280;34521;33.042;-96.586;2023-03-23T02:42:01;99518.46;;;23.10;32.02
48718;BME280;34521;33.042;-96.586;2023-03-23T02:44:29;99519.32;;;21.32;34.42
48718;BME280;34521;33.042;-96.586;2023-03-23T02:46:48;99516.33;;;20.07;35.74
48718;BME280;34521;33.042;-96.586;2023-03-23T02:49:15;99519.40;;;21.04;35.59
48718;BME280;34521;33.042;-96.586;2023-03-23T02:51:39;99523.60;;;21.68;33.84
48718;BME280;34521;33.042;-96.586;2023-03-23T02:54:03;99521.50;;;22.49;32.92
48718;BME280;34521;33.042;-96.586;2023-03-23T02:56:33;99521.71;;;22.14;32.83
48718;BME280;34521;33.042;-96.586;2023-03-23T02:58:53;99522.89;;;22.73;32.65
48718;BME280;34521;33.042;-96.586;2023-03-23T03:03:43;99532.39;;;22.61;33.44
48718;BME280;34521;33.042;-96.586;2023-03-23T03:06:14;99537.47;;;22.53;33.51
48718;BME280;34521;33.042;-96.586;2023-03-23T03:08:44;99539.52;;;22.82;33.31
48718;BME280;34521;33.042;-96.586;2023-03-23T03:11:02;99539.75;;;22.63;33.32
48718;BME280;34521;33.042;-96.586;2023-03-23T03:13:31;99538.06;;;22.57;33.43
48718;BME280;34521;33.042;-96.586;2023-03-23T03:15:53;99538.90;;;22.92;33.07
48718;BME280;34521;33.042;-96.586;2023-03-23T03:18:18;99540.40;;;22.80;33.04
48718;BME280;34521;33.042;-96.586;2023-03-23T03:20:42;99540.62;;;22.91;32.91
48718;BME280;34521;33.042;-96.586;2023-03-23T03:23:04;99544.17;;;22.98;32.75
48718;BME280;34521;33.042;-96.586;2023-03-23T03:25:29;99545.20;;;22.91;32.72
48718;BME280;34521;33.042;-96.586;2023-03-23T03:27:59;99553.19;;;22.93;32.82
48718;BME280;34521;33.042;-96.586;2023-03-23T03:30:22;99557.28;;;22.75;32.82
48718;BME280;34521;33.042;-96.586;2023-03-23T03:32:46;99560.44;;;22.80;32.71
48718;BME280;34521;33.042;-96.586;2023-03-23T03:35:09;99561.40;;;22.90;32.67
48718;BME280;34521;33.042;-96.586;2023-03-23T03:37:35;99564.37;;;22.84;33.06
48718;BME280;34521;33.042;-96.586;2023-03-23T03:40:00;99565.41;;;22.99;32.85
48718;BME280;34521;33.042;-96.586;2023-03-23T03:42:24;99565.62;;;23.06;32.73
48718;BME280;34521;33.042;-96.586;2023-03-23T03:44:49;99569.44;;;19.84;36.70
48718;BME280;34521;33.042;-96.586;2023-03-23T03:47:20;99576.73;;;20.69;35.38
48718;BME280;34521;33.042;-96.586;2023-03-23T03:49:40;99575.29;;;21.62;34.66
48718;BME280;34521;33.042;-96.586;2023-03-23T03:52:05;99576.81;;;20.64;37.47
48718;BME280;34521;33.042;-96.586;2023-03-23T03:54:39;99578.17;;;20.40;39.44
48718;BME280;34521;33.042;-96.586;2023-03-23T03:56:54;99577.46;;;20.57;40.45
48718;BME280;34521;33.042;-96.586;2023-03-23T03:59:19;99574.16;;;21.02;40.11
48718;BME280;34521;33.042;-96.586;2023-03-23T04:01:44;99570.96;;;22.08;36.63
48718;BME280;34521;33.042;-96.586;2023-03-23T04:04:14;99572.43;;;22.68;35.95
48718;BME280;34521;33.042;-96.586;2023-03-23T04:06:35;99574.71;;;22.18;36.14
48718;BME280;34521;33.042;-96.586;2023-03-23T04:09:06;99577.70;;;22.44;35.54
48718;BME280;34521;33.042;-96.586;2023-03-23T04:11:29;99578.08;;;22.61;34.94
48718;BME280;34521;33.042;-96.586;2023-03-23T04:13:50;99582.09;;;22.59;35.02
48718;BME280;34521;33.042;-96.586;2023-03-23T04:16:23;99583.79;;;22.64;34.79
48718;BME280;34521;33.042;-96.586;2023-03-23T04:18:39;99590.44;;;22.62;34.85
48718;BME280;34521;33.042;-96.586;2023-03-23T04:21:06;99591.59;;;22.78;34.51
48718;BME280;34521;33.042;-96.586;2023-03-23T04:23:35;99593.98;;;22.83;34.35
48718;BME280;34521;33.042;-96.586;2023-03-23T04:25:55;99595.19;;;23.01;34.04
48718;BME280;34521;33.042;-96.586;2023-03-23T04:28:20;99593.93;;;22.96;34.05
48718;BME280;34521;33.042;-96.586;2023-03-23T04:30:51;99595.52;;;22.95;34.05
48718;BME280;34521;33.042;-96.586;2023-03-23T04:33:10;99596.87;;;22.85;34.15
48718;BME280;34521;33.042;-96.586;2023-03-23T04:35:40;99596.40;;;22.94;33.93
48718;BME280;34521;33.042;-96.586;2023-03-23T04:38:00;99596.20;;;22.92;33.96
48718;BME280;34521;33.042;-96.586;2023-03-23T04:40:25;99592.54;;;22.99;33.71
48718;BME280;34521;33.042;-96.586;2023-03-23T04:42:50;99590.38;;;22.64;33.89
48718;BME280;34521;33.042;-96.586;2023-03-23T04:45:17;99593.60;;;23.08;33.57
48718;BME280;34521;33.042;-96.586;2023-03-23T04:47:45;99594.34;;;21.82;36.56
48718;BME280;34521;33.042;-96.586;2023-03-23T04:50:08;99596.82;;;20.73;39.91
48718;BME280;34521;33.042;-96.586;2023-03-23T04:52:30;99593.36;;;20.80;40.59
48718;BME280;34521;33.042;-96.586;2023-03-23T04:54:55;99589.97;;;20.24;42.18
48718;BME280;34521;33.042;-96.586;2023-03-23T04:57:20;99590.28;;;20.48;42.23
48718;BME280;34521;33.042;-96.586;2023-03-23T04:59:45;99593.20;;;21.96;38.24
48718;BME280;34521;33.042;-96.586;2023-03-23T05:02:11;99589.49;;;22.71;37.07
48718;BME280;34521;33.042;-96.586;2023-03-23T05:04:35;99590.81;;;22.68;36.55
48718;BME280;34521;33.042;-96.586;2023-03-23T05:07:01;99594.86;;;22.63;36.42
48718;BME280;34521;33.042;-96.586;2023-03-23T05:09:26;99595.17;;;23.08;35.59
48718;BME280;34521;33.042;-96.586;2023-03-23T05:11:52;99592.43;;;23.11;35.58
48718;BME280;34521;33.042;-96.586;2023-03-23T05:14:16;99597.80;;;23.32;35.18
48718;BME280;34521;33.042;-96.586;2023-03-23T05:16:45;99597.29;;;23.49;34.89
48718;BME280;34521;33.042;-96.586;2023-03-23T05:19:06;99598.90;;;23.35;34.90
48718;BME280;34521;33.042;-96.586;2023-03-23T05:21:31;99601.32;;;23.25;35.07
48718;BME280;34521;33.042;-96.586;2023-03-23T05:23:56;99600.67;;;23.21;34.94
48718;BME280;34521;33.042;-96.586;2023-03-23T05:26:21;99601.07;;;22.99;34.89
48718;BME280;34521;33.042;-96.586;2023-03-23T05:28:46;99605.08;;;23.40;34.57
48718;BME280;34521;33.042;-96.586;2023-03-23T05:31:11;99608.90;;;20.07;38.52
48718;BME280;34521;33.042;-96.586;2023-03-23T05:33:36;99611.54;;;19.66;38.67
48718;BME280;34521;33.042;-96.586;2023-03-23T05:36:01;99605.86;;;21.29;37.41
48718;BME280;34521;33.042;-96.586;2023-03-23T05:38:26;99606.96;;;21.91;35.35
48718;BME280;34521;33.042;-96.586;2023-03-23T05:40:51;99607.70;;;22.23;35.27
48718;BME280;34521;33.042;-96.586;2023-03-23T05:43:16;99605.45;;;22.27;34.86
48718;BME280;34521;33.042;-96.586;2023-03-23T05:45:41;99601.69;;;22.31;34.76
48718;BME280;34521;33.042;-96.586;2023-03-23T05:48:06;99600.28;;;22.35;34.46
48718;BME280;34521;33.042;-96.586;2023-03-23T05:50:31;99600.44;;;22.10;34.75
48718;BME280;34521;33.042;-96.586;2023-03-23T05:52:57;99598.03;;;20.16;40.60
48718;BME280;34521;33.042;-96.586;2023-03-23T05:55:23;99603.08;;;20.13;41.93
48718;BME280;34521;33.042;-96.586;2023-03-23T05:57:47;99597.62;;;21.78;39.16
48718;BME280;34521;33.042;-96.586;2023-03-23T06:00:12;99595.74;;;22.13;37.40
48718;BME280;34521;33.042;-96.586;2023-03-23T06:02:42;99591.53;;;22.51;36.53
48718;BME280;34521;33.042;-96.586;2023-03-23T06:05:03;99592.77;;;22.66;36.23
48718;BME280;34521;33.042;-96.586;2023-03-23T06:07:27;99595.82;;;22.44;36.06
48718;BME280;34521;33.042;-96.586;2023-03-23T06:10:03;99596.12;;;22.77;35.83
48718;BME280;34521;33.042;-96.586;2023-03-23T06:12:18;99596.77;;;22.49;35.76
48718;BME280;34521;33.042;-96.586;2023-03-23T06:14:42;99596.25;;;22.49;35.79
48718;BME280;34521;33.042;-96.586;2023-03-23T06:17:07;99596.34;;;22.83;35.50
48718;BME280;34521;33.042;-96.586;2023-03-23T06:19:33;99595.81;;;22.45;35.71
48718;BME280;34521;33.042;-96.586;2023-03-23T06:21:57;99602.39;;;22.49;35.53
48718;BME280;34521;33.042;-96.586;2023-03-23T06:24:22;99607.84;;;22.85;35.30
48718;BME280;34521;33.042;-96.586;2023-03-23T06:26:47;99604.80;;;22.66;35.10
48718;BME280;34521;33.042;-96.586;2023-03-23T06:29:18;99606.15;;;22.68;35.16
48718;BME280;34521;33.042;-96.586;2023-03-23T06:31:38;99605.46;;;22.74;34.98
48718;BME280;34521;33.042;-96.586;2023-03-23T06:34:02;99607.41;;;22.30;35.21
48718;BME280;34521;33.042;-96.586;2023-03-23T06:36:27;99609.80;;;22.61;35.04
48718;BME280;34521;33.042;-96.586;2023-03-23T06:38:57;99611.32;;;22.89;35.04
48718;BME280;34521;33.042;-96.586;2023-03-23T06:41:17;99612.78;;;22.58;35.09
48718;BME280;34521;33.042;-96.586;2023-03-23T06:43:43;99610.60;;;21.11;38.70
48718;BME280;34521;33.042;-96.586;2023-03-23T06:46:08;99612.94;;;19.60;41.52
48718;BME280;34521;33.042;-96.586;2023-03-23T06:48:39;99614.90;;;18.98;43.42
48718;BME280;34521;33.042;-96.586;2023-03-23T06:50:59;99614.50;;;19.14;44.17
48718;BME280;34521;33.042;-96.586;2023-03-23T06:53:28;99615.38;;;19.20;44.18
48718;BME280;34521;33.042;-96.586;2023-03-23T06:55:48;99611.85;;;19.08;44.47
48718;BME280;34521;33.042;-96.586;2023-03-23T06:58:22;99603.97;;;21.37;38.59
48718;BME280;34521;33.042;-96.586;2023-03-23T07:00:38;99603.16;;;22.10;37.63
48718;BME280;34521;33.042;-96.586;2023-03-23T07:03:03;99597.09;;;22.45;36.99
48718;BME280;34521;33.042;-96.586;2023-03-23T07:05:28;99591.91;;;22.50;36.63
48718;BME280;34521;33.042;-96.586;2023-03-23T07:07:54;99592.25;;;22.83;36.04
48718;BME280;34521;33.042;-96.586;2023-03-23T07:10:19;99588.34;;;22.90;35.96
48718;BME280;34521;33.042;-96.586;2023-03-23T07:12:44;99586.42;;;22.84;35.89
48718;BME280;34521;33.042;-96.586;2023-03-23T07:15:09;99579.32;;;22.61;35.73
48718;BME280;34521;33.042;-96.586;2023-03-23T07:17:33;99574.73;;;22.63;35.70
48718;BME280;34521;33.042;-96.586;2023-03-23T07:20:00;99571.60;;;22.55;35.63
48718;BME280;34521;33.042;-96.586;2023-03-23T07:22:28;99572.96;;;22.74;35.33
48718;BME280;34521;33.042;-96.586;2023-03-23T07:24:49;99572.79;;;22.92;35.53
48718;BME280;34521;33.042;-96.586;2023-03-23T07:27:14;99572.99;;;22.69;35.27
48718;BME280;34521;33.042;-96.586;2023-03-23T07:29:39;99575.91;;;22.62;35.32
48718;BME280;34521;33.042;-96.586;2023-03-23T07:32:05;99571.84;;;22.04;35.59
48718;BME280;34521;33.042;-96.586;2023-03-23T07:34:28;99572.24;;;22.69;35.20
48718;BME280;34521;33.042;-96.586;2023-03-23T07:36:53;99571.26;;;22.67;35.17
48718;BME280;34521;33.042;-96.586;2023-03-23T07:39:19;99573.90;;;22.64;35.12
48718;BME280;34521;33.042;-96.586;2023-03-23T07:41:44;99570.57;;;22.52;35.32
48718;BME280;34521;33.042;-96.586;2023-03-23T07:44:13;99566.98;;;22.56;35.24
48718;BME280;34521;33.042;-96.586;2023-03-23T07:46:34;99566.42;;;20.48;39.72
48718;BME280;34521;33.042;-96.586;2023-03-23T07:48:59;99569.75;;;19.51;42.32
48718;BME280;34521;33.042;-96.586;2023-03-23T07:51:25;99574.38;;;19.42;43.13
48718;BME280;34521;33.042;-96.586;2023-03-23T07:53:49;99572.75;;;18.98;43.67
48718;BME280;34521;33.042;-96.586;2023-03-23T07:56:19;99565.32;;;20.91;40.21
48718;BME280;34521;33.042;-96.586;2023-03-23T07:58:44;99561.70;;;21.95;37.56
48718;BME280;34521;33.042;-96.586;2023-03-23T08:01:04;99558.70;;;22.38;36.37
48718;BME280;34521;33.042;-96.586;2023-03-23T08:03:29;99562.84;;;22.10;36.42
48718;BME280;34521;33.042;-96.586;2023-03-23T08:05:59;99555.49;;;22.43;35.93
48718;BME280;34521;33.042;-96.586;2023-03-23T08:08:20;99556.99;;;22.42;36.03
48718;BME280;34521;33.042;-96.586;2023-03-23T08:10:44;99560.39;;;22.41;35.91
48718;BME280;34521;33.042;-96.586;2023-03-23T08:13:09;99558.31;;;22.58;35.58
48718;BME280;34521;33.042;-96.586;2023-03-23T08:15:40;99558.45;;;22.66;35.50
48718;BME280;34521;33.042;-96.586;2023-03-23T08:17:59;99555.36;;;22.57;35.49
48718;BME280;34521;33.042;-96.586;2023-03-23T08:20:24;99550.22;;;22.72;35.17
48718;BME280;34521;33.042;-96.586;2023-03-23T08:22:55;99545.85;;;22.44;35.51
48718;BME280;34521;33.042;-96.586;2023-03-23T08:25:20;99548.22;;;22.60;35.32
48718;BME280;34521;33.042;-96.586;2023-03-23T08:27:39;99547.34;;;22.46;35.39
48718;BME280;34521;33.042;-96.586;2023-03-23T08:30:13;99546.12;;;22.54;35.39
48718;BME280;34521;33.042;-96.586;2023-03-23T08:32:29;99543.42;;;22.59;35.21
48718;BME280;34521;33.042;-96.586;2023-03-23T08:34:54;99544.51;;;22.56;35.20
48718;BME280;34521;33.042;-96.586;2023-03-23T08:37:20;99545.31;;;22.85;34.70
48718;BME280;34521;33.042;-96.586;2023-03-23T08:39:44;99539.78;;;22.49;35.20
48718;BME280;34521;33.042;-96.586;2023-03-23T08:42:09;99538.60;;;22.50;35.20
48718;BME280;34521;33.042;-96.586;2023-03-23T08:44:35;99542.81;;;21.33;38.10
48718;BME280;34521;33.042;-96.586;2023-03-23T08:47:00;99542.01;;;19.95;40.92
48718;BME280;34521;33.042;-96.586;2023-03-23T08:49:25;99541.90;;;19.42;42.47
48718;BME280;34521;33.042;-96.586;2023-03-23T08:51:55;99537.22;;;19.54;43.23
48718;BME280;34521;33.042;-96.586;2023-03-23T08:54:15;99537.85;;;19.51;43.13
48718;BME280;34521;33.042;-96.586;2023-03-23T08:56:44;99532.07;;;21.66;38.15
48718;BME280;34521;33.042;-96.586;2023-03-23T08:59:10;99529.89;;;22.21;36.92
48718;BME280;34521;33.042;-96.586;2023-03-23T09:01:30;99522.50;;;22.20;36.18
48718;BME280;34521;33.042;-96.586;2023-03-23T09:03:56;99522.19;;;22.69;35.73
48718;BME280;34521;33.042;-96.586;2023-03-23T09:06:20;99518.32;;;22.45;35.62
48718;BME280;34521;33.042;-96.586;2023-03-23T09:08:50;99515.49;;;22.50;35.59
48718;BME280;34521;33.042;-96.586;2023-03-23T09:11:10;99518.92;;;22.54;35.44
48718;BME280;34521;33.042;-96.586;2023-03-23T09:13:37;99516.30;;;22.29;35.79
48718;BME280;34521;33.042;-96.586;2023-03-23T09:16:01;99517.33;;;22.29;35.40
48718;BME280;34521;33.042;-96.586;2023-03-23T09:18:25;99514.75;;;22.45;35.46
48718;BME280;34521;33.042;-96.586;2023-03-23T09:20:51;99511.14;;;22.46;35.29
48718;BME280;34521;33.042;-96.586;2023-03-23T09:23:15;99509.57;;;22.48;35.24
48718;BME280;34521;33.042;-96.586;2023-03-23T09:25:40;99511.25;;;22.59;35.10
48718;BME280;34521;33.042;-96.586;2023-03-23T09:28:05;99510.68;;;22.35;35.07
48718;BME280;34521;33.042;-96.586;2023-03-23T09:30:32;99509.45;;;22.61;35.01
48718;BME280;34521;33.042;-96.586;2023-03-23T09:32:56;99513.90;;;22.63;34.89
48718;BME280;34521;33.042;-96.586;2023-03-23T09:35:21;99515.66;;;22.65;34.91
48718;BME280;34521;33.042;-96.586;2023-03-23T09:37:52;99516.62;;;22.57;34.89
48718;BME280;34521;33.042;-96.586;2023-03-23T09:40:18;99517.98;;;21.23;37.50
48718;BME280;34521;33.042;-96.586;2023-03-23T09:42:43;99518.12;;;19.82;40.43
48718;BME280;34521;33.042;-96.586;2023-03-23T09:45:10;99518.68;;;19.51;42.06
48718;BME280;34521;33.042;-96.586;2023-03-23T09:47:32;99518.14;;;19.59;42.58
48718;BME280;34521;33.042;-96.586;2023-03-23T09:49:55;99518.94;;;19.48;43.27
48718;BME280;34521;33.042;-96.586;2023-03-23T09:52:18;99516.00;;;19.22;43.48
48718;BME280;34521;33.042;-96.586;2023-03-23T09:54:48;99509.64;;;21.05;39.57
48718;BME280;34521;33.042;-96.586;2023-03-23T09:57:16;99510.51;;;21.80;37.63
48718;BME280;34521;33.042;-96.586;2023-03-23T09:59:35;99508.03;;;22.57;36.27
48718;BME280;34521;33.042;-96.586;2023-03-23T10:02:02;99508.29;;;22.44;36.07
48718;BME280;34521;33.042;-96.586;2023-03-23T10:04:30;99511.47;;;22.35;35.81
48718;BME280;34521;33.042;-96.586;2023-03-23T10:06:47;99511.26;;;22.30;35.82
48718;BME280;34521;33.042;-96.586;2023-03-23T10:09:15;99509.45;;;22.35;35.81
48718;BME280;34521;33.042;-96.586;2023-03-23T10:11:49;99510.33;;;22.56;35.71
48718;BME280;34521;33.042;-96.586;2023-03-23T10:14:13;99511.79;;;22.47;35.49
48718;BME280;34521;33.042;-96.586;2023-03-23T10:16:30;99511.63;;;22.38;35.27
48718;BME280;34521;33.042;-96.586;2023-03-23T10:18:58;99510.64;;;22.70;34.98
48718;BME280;34521;33.042;-96.586;2023-03-23T10:21:19;99508.98;;;22.48;35.21
48718;BME280;34521;33.042;-96.586;2023-03-23T10:23:50;99513.40;;;22.99;34.61
48718;BME280;34521;33.042;-96.586;2023-03-23T10:26:21;99513.38;;;22.68;35.19
48718;BME280;34521;33.042;-96.586;2023-03-23T10:28:37;99518.15;;;22.75;34.89
48718;BME280;34521;33.042;-96.586;2023-03-23T10:30:58;99520.63;;;22.78;34.89
48718;BME280;34521;33.042;-96.586;2023-03-23T10:33:29;99521.99;;;22.85;34.76
48718;BME280;34521;33.042;-96.586;2023-03-23T10:35:50;99520.90;;;22.67;34.93
48718;BME280;34521;33.042;-96.586;2023-03-23T10:38:15;99526.47;;;22.66;34.92
48718;BME280;34521;33.042;-96.586;2023-03-23T10:40:43;99529.79;;;21.92;36.44
48718;BME280;34521;33.042;-96.586;2023-03-23T10:43:03;99537.27;;;19.94;40.30
48718;BME280;34521;33.042;-96.586;2023-03-23T10:45:29;99541.09;;;19.60;41.93
48718;BME280;34521;33.042;-96.586;2023-03-23T10:47:55;99542.71;;;19.35;42.60
48718;BME280;34521;33.042;-96.586;2023-03-23T10:50:21;99546.27;;;19.38;43.12
48718;BME280;34521;33.042;-96.586;2023-03-23T10:52:43;99539.40;;;20.48;41.20
48718;BME280;34521;33.042;-96.586;2023-03-23T10:55:11;99539.29;;;21.47;38.00
48718;BME280;34521;33.042;-96.586;2023-03-23T10:57:34;99537.18;;;22.20;36.75
48718;BME280;34521;33.042;-96.586;2023-03-23T11:00:06;99533.70;;;22.70;35.62
48718;BME280;34521;33.042;-96.586;2023-03-23T11:02:25;99537.86;;;22.34;35.77
48718;BME280;34521;33.042;-96.586;2023-03-23T11:04:56;99540.64;;;22.88;35.27
48718;BME280;34521;33.042;-96.586;2023-03-23T11:07:20;99543.97;;;19.88;38.99
48718;BME280;34521;33.042;-96.586;2023-03-23T11:09:39;99550.91;;;19.27;39.44
48718;BME280;34521;33.042;-96.586;2023-03-23T11:12:03;99548.76;;;21.33;37.22
48718;BME280;34521;33.042;-96.586;2023-03-23T11:14:29;99543.74;;;21.27;36.47
48718;BME280;34521;33.042;-96.586;2023-03-23T11:16:54;99550.05;;;21.71;35.96
48718;BME280;34521;33.042;-96.586;2023-03-23T11:19:24;99551.03;;;22.05;35.46
48718;BME280;34521;33.042;-96.586;2023-03-23T11:21:59;99552.21;;;22.12;34.93
48718;BME280;34521;33.042;-96.586;2023-03-23T11:24:09;99550.30;;;22.42;34.60
48718;BME280;34521;33.042;-96.586;2023-03-23T11:26:35;99552.49;;;22.22;34.59
48718;BME280;34521;33.042;-96.586;2023-03-23T11:29:03;99554.10;;;22.26;34.52
48718;BME280;34521;33.042;-96.586;2023-03-23T11:31:24;99550.13;;;22.45;34.58
48718;BME280;34521;33.042;-96.586;2023-03-23T11:33:53;99547.59;;;22.43;34.29
48718;BME280;34521;33.042;-96.586;2023-03-23T11:36:13;99554.19;;;22.34;34.43
48718;BME280;34521;33.042;-96.586;2023-03-23T11:38:44;99557.95;;;22.63;34.40
48718;BME280;34521;33.042;-96.586;2023-03-23T11:41:11;99566.49;;;21.78;34.61
48718;BME280;34521;33.042;-96.586;2023-03-23T11:43:29;99571.07;;;21.80;36.42
48718;BME280;34521;33.042;-96.586;2023-03-23T11:46:01;99574.08;;;19.96;41.06
48718;BME280;34521;33.042;-96.586;2023-03-23T11:48:25;99577.05;;;20.22;41.64
48718;BME280;34521;33.042;-96.586;2023-03-23T11:50:51;99586.49;;;19.24;43.03
48718;BME280;34521;33.042;-96.586;2023-03-23T11:53:13;99581.11;;;21.54;37.92
48718;BME280;34521;33.042;-96.586;2023-03-23T11:55:37;99575.67;;;21.92;36.89
48718;BME280;34521;33.042;-96.586;2023-03-23T11:58:03;99578.07;;;22.00;36.82
48718;BME280;34521;33.042;-96.586;2023-03-23T12:00:25;99573.14;;;22.28;36.26
48718;BME280;34521;33.042;-96.586;2023-03-23T12:02:59;99577.82;;;22.13;36.08
48718;BME280;34521;33.042;-96.586;2023-03-23T12:07:52;99575.60;;;22.09;35.88
48718;BME280;34521;33.042;-96.586;2023-03-23T12:10:13;99582.03;;;22.21;35.75
48718;BME280;34521;33.042;-96.586;2023-03-23T12:12:35;99585.38;;;22.32;35.42
48718;BME280;34521;33.042;-96.586;2023-03-23T12:15:07;99581.65;;;22.22;35.51
48718;BME280;34521;33.042;-96.586;2023-03-23T12:17:41;99580.00;;;22.42;35.24
48718;BME280;34521;33.042;-96.586;2023-03-23T12:19:51;99581.50;;;22.56;35.02
48718;BME280;34521;33.042;-96.586;2023-03-23T12:22:17;99578.07;;;22.59;34.97
48718;BME280;34521;33.042;-96.586;2023-03-23T12:24:51;99581.96;;;22.57;34.95
48718;BME280;34521;33.042;-96.586;2023-03-23T12:27:04;99580.25;;;22.75;34.72
48718;BME280;34521;33.042;-96.586;2023-03-23T12:29:35;99581.01;;;22.64;34.80
48718;BME280;34521;33.042;-96.586;2023-03-23T12:32:16;99578.15;;;22.35;34.84
48718;BME280;34521;33.042;-96.586;2023-03-23T12:34:20;99582.65;;;22.61;34.76
48718;BME280;34521;33.042;-96.586;2023-03-23T12:36:54;99583.24;;;22.58;34.89